sensor_id;sensor_type;location;lat;lon;timestamp;temperature;humidity
10903;DHT22;5504;47.312;11.060;2023-09-19T00:00:38;17.90;98.50
10903;DHT22;5504;47.312;11.060;2023-09-19T00:03:04;17.80;98.40
10903;DHT22;5504;47.312;11.060;2023-09-19T00:05:35;17.80;98.40
10903;DHT22;5504;47.312;11.060;2023-09-19T00:08:01;17.80;98.40
10903;DHT22;5504;47.312;11.060;2023-09-19T00:10:31;17.70;98.30
10903;DHT22;5504;47.312;11.060;2023-09-19T00:12:58;17.70;98.40
10903;DHT22;5504;47.312;11.060;2023-09-19T00:15:35;17.60;98.50
10903;DHT22;5504;47.312;11.060;2023-09-19T00:18:01;17.60;98.50
10903;DHT22;5504;47.312;11.060;2023-09-19T00:20:27;17.60;98.50
10903;DHT22;5504;47.312;11.060;2023-09-19T00:22:53;17.60;98.50
10903;DHT22;5504;47.312;11.060;2023-09-19T00:25:22;17.70;98.30
10903;DHT22;5504;47.312;11.060;2023-09-19T00:27:48;17.60;98.10
10903;DHT22;5504;47.312;11.060;2023-09-19T00:30:15;17.60;98.20
10903;DHT22;5504;47.312;11.060;2023-09-19T00:32:45;17.60;98.40
10903;DHT22;5504;47.312;11.060;2023-09-19T00:35:16;17.50;98.30
10903;DHT22;5504;47.312;11.060;2023-09-19T00:37:42;17.50;98.50
10903;DHT22;5504;47.312;11.060;2023-09-19T00:40:09;17.40;98.50
10903;DHT22;5504;47.312;11.060;2023-09-19T00:42:48;17.50;98.60
10903;DHT22;5504;47.312;11.060;2023-09-19T00:45:15;17.50;98.70
10903;DHT22;5504;47.312;11.060;2023-09-19T00:47:44;17.50;98.80
10903;DHT22;5504;47.312;11.060;2023-09-19T00:50:12;17.50;98.60
10903;DHT22;5504;47.312;11.060;2023-09-19T00:52:40;17.50;98.70
10903;DHT22;5504;47.312;11.060;2023-09-19T00:55:10;17.50;98.70
10903;DHT22;5504;47.312;11.060;2023-09-19T00:57:38;17.50;98.70
10903;DHT22;5504;47.312;11.060;2023-09-19T01:00:07;17.50;98.40
10903;DHT22;5504;47.312;11.060;2023-09-19T01:02:35;17.40;98.30
10903;DHT22;5504;47.312;11.060;2023-09-19T01:05:01;17.40;98.50
10903;DHT22;5504;47.312;11.060;2023-09-19T01:07:27;17.30;98.60
10903;DHT22;5504;47.312;11.060;2023-09-19T01:10:17;17.40;98.70
10903;DHT22;5504;47.312;11.060;2023-09-19T01:19:10;17.20;98.40
10903;DHT22;5504;47.312;11.060;2023-09-19T01:21:57;17.30;98.50
10903;DHT22;5504;47.312;11.060;2023-09-19T01:30:32;17.20;98.20
10903;DHT22;5504;47.312;11.060;2023-09-19T01:33:01;17.30;98.50
10903;DHT22;5504;47.312;11.060;2023-09-19T01:35:29;17.40;98.70
10903;DHT22;5504;47.312;11.060;2023-09-19T01:37:55;17.40;98.50
10903;DHT22;5504;47.312;11.060;2023-09-19T01:40:21;17.20;98.30
10903;DHT22;5504;47.312;11.060;2023-09-19T01:42:52;17.30;98.50
10903;DHT22;5504;47.312;11.060;2023-09-19T01:45:46;17.20;98.40
10903;DHT22;5504;47.312;11.060;2023-09-19T01:51:07;17.30;98.80
10903;DHT22;5504;47.312;11.060;2023-09-19T01:53:49;17.40;98.90
10903;DHT22;5504;47.312;11.060;2023-09-19T01:56:23;17.30;98.60
10903;DHT22;5504;47.312;11.060;2023-09-19T01:58:53;17.30;98.70
10903;DHT22;5504;47.312;11.060;2023-09-19T02:01:22;17.30;98.80
10903;DHT22;5504;47.312;11.060;2023-09-19T02:03:50;17.40;98.60
10903;DHT22;5504;47.312;11.060;2023-09-19T02:06:17;17.40;98.40
10903;DHT22;5504;47.312;11.060;2023-09-19T02:08:44;17.40;98.30
10903;DHT22;5504;47.312;11.060;2023-09-19T02:11:13;17.40;98.40
10903;DHT22;5504;47.312;11.060;2023-09-19T02:13:39;17.40;98.40
10903;DHT22;5504;47.312;11.060;2023-09-19T02:16:06;17.40;98.40
10903;DHT22;5504;47.312;11.060;2023-09-19T02:18:32;17.30;98.40
10903;DHT22;5504;47.312;11.060;2023-09-19T02:21:01;17.30;98.30
10903;DHT22;5504;47.312;11.060;2023-09-19T02:23:27;17.20;98.40
10903;DHT22;5504;47.312;11.060;2023-09-19T02:26:02;17.20;98.60
10903;DHT22;5504;47.312;11.060;2023-09-19T02:28:27;17.20;98.60
10903;DHT22;5504;47.312;11.060;2023-09-19T02:30:58;17.20;98.60
10903;DHT22;5504;47.312;11.060;2023-09-19T02:33:24;17.30;98.70
10903;DHT22;5504;47.312;11.060;2023-09-19T02:35:49;17.30;98.50
10903;DHT22;5504;47.312;11.060;2023-09-19T02:38:16;17.40;98.10
10903;DHT22;5504;47.312;11.060;2023-09-19T02:40:46;17.40;97.90
10903;DHT22;5504;47.312;11.060;2023-09-19T02:43:12;17.30;97.90
10903;DHT22;5504;47.312;11.060;2023-09-19T02:45:37;17.30;98.00
10903;DHT22;5504;47.312;11.060;2023-09-19T02:48:04;17.20;98.10
10903;DHT22;5504;47.312;11.060;2023-09-19T02:50:30;17.20;98.20
10903;DHT22;5504;47.312;11.060;2023-09-19T02:52:56;17.20;98.20
10903;DHT22;5504;47.312;11.060;2023-09-19T02:55:21;17.10;98.20
10903;DHT22;5504;47.312;11.060;2023-09-19T02:57:54;17.10;98.40
10903;DHT22;5504;47.312;11.060;2023-09-19T03:00:23;17.20;98.40
10903;DHT22;5504;47.312;11.060;2023-09-19T03:02:58;17.10;98.20
10903;DHT22;5504;47.312;11.060;2023-09-19T03:05:25;17.00;98.00
10903;DHT22;5504;47.312;11.060;2023-09-19T03:07:51;17.00;98.10
10903;DHT22;5504;47.312;11.060;2023-09-19T03:10:18;16.90;98.10
10903;DHT22;5504;47.312;11.060;2023-09-19T03:12:44;17.00;98.10
10903;DHT22;5504;47.312;11.060;2023-09-19T03:15:09;16.90;97.90
10903;DHT22;5504;47.312;11.060;2023-09-19T03:17:35;16.90;97.90
10903;DHT22;5504;47.312;11.060;2023-09-19T03:20:02;16.80;97.90
10903;DHT22;5504;47.312;11.060;2023-09-19T03:22:29;16.80;97.90
10903;DHT22;5504;47.312;11.060;2023-09-19T03:24:55;16.80;97.80
10903;DHT22;5504;47.312;11.060;2023-09-19T03:27:21;16.70;97.80
10903;DHT22;5504;47.312;11.060;2023-09-19T03:29:47;16.80;97.70
10903;DHT22;5504;47.312;11.060;2023-09-19T03:32:13;16.70;97.90
10903;DHT22;5504;47.312;11.060;2023-09-19T03:34:39;16.70;97.50
10903;DHT22;5504;47.312;11.060;2023-09-19T03:37:09;16.70;97.40
10903;DHT22;5504;47.312;11.060;2023-09-19T03:39:35;16.70;97.30
10903;DHT22;5504;47.312;11.060;2023-09-19T03:42:01;16.70;97.60
10903;DHT22;5504;47.312;11.060;2023-09-19T03:44:29;16.70;97.80
10903;DHT22;5504;47.312;11.060;2023-09-19T03:46:56;16.70;97.80
10903;DHT22;5504;47.312;11.060;2023-09-19T03:49:22;16.60;97.80
10903;DHT22;5504;47.312;11.060;2023-09-19T03:51:48;16.60;97.80
10903;DHT22;5504;47.312;11.060;2023-09-19T03:54:14;16.50;98.00
10903;DHT22;5504;47.312;11.060;2023-09-19T03:56:40;16.50;98.20
10903;DHT22;5504;47.312;11.060;2023-09-19T03:59:05;16.60;98.30
10903;DHT22;5504;47.312;11.060;2023-09-19T04:01:31;16.50;98.30
10903;DHT22;5504;47.312;11.060;2023-09-19T04:03:59;16.50;98.30
10903;DHT22;5504;47.312;11.060;2023-09-19T04:06:36;16.50;98.30
10903;DHT22;5504;47.312;11.060;2023-09-19T04:09:03;16.50;98.50
10903;DHT22;5504;47.312;11.060;2023-09-19T04:11:32;16.60;98.50
10903;DHT22;5504;47.312;11.060;2023-09-19T04:13:59;16.60;98.40
10903;DHT22;5504;47.312;11.060;2023-09-19T04:16:25;16.50;98.30
10903;DHT22;5504;47.312;11.060;2023-09-19T04:18:50;16.50;98.40
10903;DHT22;5504;47.312;11.060;2023-09-19T04:21:16;16.60;98.50
10903;DHT22;5504;47.312;11.060;2023-09-19T04:23:42;16.60;98.60
10903;DHT22;5504;47.312;11.060;2023-09-19T04:26:08;16.70;98.50
10903;DHT22;5504;47.312;11.060;2023-09-19T04:28:34;16.60;98.40
10903;DHT22;5504;47.312;11.060;2023-09-19T04:31:00;16.60;98.60
10903;DHT22;5504;47.312;11.060;2023-09-19T04:33:26;16.60;98.70
10903;DHT22;5504;47.312;11.060;2023-09-19T04:35:55;16.70;98.80
10903;DHT22;5504;47.312;11.060;2023-09-19T04:38:21;16.70;98.60
10903;DHT22;5504;47.312;11.060;2023-09-19T04:40:47;16.70;98.30
10903;DHT22;5504;47.312;11.060;2023-09-19T04:43:13;16.70;98.30
10903;DHT22;5504;47.312;11.060;2023-09-19T04:45:40;16.70;98.30
10903;DHT22;5504;47.312;11.060;2023-09-19T04:48:06;16.60;98.30
10903;DHT22;5504;47.312;11.060;2023-09-19T04:50:32;16.60;98.30
10903;DHT22;5504;47.312;11.060;2023-09-19T04:52:59;16.60;98.40
10903;DHT22;5504;47.312;11.060;2023-09-19T04:55:26;16.60;98.20
10903;DHT22;5504;47.312;11.060;2023-09-19T04:57:52;16.60;98.20
10903;DHT22;5504;47.312;11.060;2023-09-19T05:00:23;16.60;98.20
10903;DHT22;5504;47.312;11.060;2023-09-19T05:02:56;16.70;98.00
10903;DHT22;5504;47.312;11.060;2023-09-19T05:05:22;16.70;98.30
10903;DHT22;5504;47.312;11.060;2023-09-19T05:07:49;16.70;98.30
10903;DHT22;5504;47.312;11.060;2023-09-19T05:10:15;16.70;98.20
10903;DHT22;5504;47.312;11.060;2023-09-19T05:12:44;16.70;98.20
10903;DHT22;5504;47.312;11.060;2023-09-19T05:15:13;16.70;98.30
10903;DHT22;5504;47.312;11.060;2023-09-19T05:17:40;16.80;98.30
10903;DHT22;5504;47.312;11.060;2023-09-19T05:20:07;16.80;98.50
10903;DHT22;5504;47.312;11.060;2023-09-19T05:22:42;16.80;98.50
10903;DHT22;5504;47.312;11.060;2023-09-19T05:25:09;16.80;98.60
10903;DHT22;5504;47.312;11.060;2023-09-19T05:27:35;16.70;98.50
10903;DHT22;5504;47.312;11.060;2023-09-19T05:30:01;16.80;98.40
10903;DHT22;5504;47.312;11.060;2023-09-19T05:32:27;16.80;98.40
10903;DHT22;5504;47.312;11.060;2023-09-19T05:34:52;16.80;98.50
10903;DHT22;5504;47.312;11.060;2023-09-19T05:37:19;16.80;98.40
10903;DHT22;5504;47.312;11.060;2023-09-19T05:39:45;16.80;98.00
10903;DHT22;5504;47.312;11.060;2023-09-19T05:42:10;16.70;98.30
10903;DHT22;5504;47.312;11.060;2023-09-19T05:44:36;16.70;98.30
10903;DHT22;5504;47.312;11.060;2023-09-19T05:47:03;16.70;98.50
10903;DHT22;5504;47.312;11.060;2023-09-19T05:49:28;16.70;98.60
10903;DHT22;5504;47.312;11.060;2023-09-19T05:51:54;16.80;98.70
10903;DHT22;5504;47.312;11.060;2023-09-19T05:54:22;16.90;98.60
10903;DHT22;5504;47.312;11.060;2023-09-19T05:56:47;16.90;98.40
10903;DHT22;5504;47.312;11.060;2023-09-19T05:59:14;17.00;98.10
10903;DHT22;5504;47.312;11.060;2023-09-19T06:01:42;17.00;98.00
10903;DHT22;5504;47.312;11.060;2023-09-19T06:04:08;17.00;98.10
10903;DHT22;5504;47.312;11.060;2023-09-19T06:06:34;17.00;98.00
10903;DHT22;5504;47.312;11.060;2023-09-19T06:09:06;17.00;97.90
10903;DHT22;5504;47.312;11.060;2023-09-19T06:11:36;17.00;98.10
10903;DHT22;5504;47.312;11.060;2023-09-19T06:14:03;17.00;98.40
10903;DHT22;5504;47.312;11.060;2023-09-19T06:16:29;17.10;98.50
10903;DHT22;5504;47.312;11.060;2023-09-19T06:18:57;17.00;97.90
10903;DHT22;5504;47.312;11.060;2023-09-19T06:21:24;17.00;98.00
10903;DHT22;5504;47.312;11.060;2023-09-19T06:23:49;17.10;98.20
10903;DHT22;5504;47.312;11.060;2023-09-19T06:26:15;17.10;98.20
10903;DHT22;5504;47.312;11.060;2023-09-19T06:28:41;17.10;98.30
10903;DHT22;5504;47.312;11.060;2023-09-19T06:31:08;17.20;98.40
10903;DHT22;5504;47.312;11.060;2023-09-19T06:33:38;17.20;98.50
10903;DHT22;5504;47.312;11.060;2023-09-19T06:36:05;17.30;98.50
10903;DHT22;5504;47.312;11.060;2023-09-19T06:38:31;17.30;98.10
10903;DHT22;5504;47.312;11.060;2023-09-19T06:41:00;17.50;98.20
10903;DHT22;5504;47.312;11.060;2023-09-19T06:43:27;17.60;97.80
10903;DHT22;5504;47.312;11.060;2023-09-19T06:45:54;17.60;97.30
10903;DHT22;5504;47.312;11.060;2023-09-19T06:48:20;17.80;97.40
10903;DHT22;5504;47.312;11.060;2023-09-19T06:50:46;17.90;97.50
10903;DHT22;5504;47.312;11.060;2023-09-19T06:53:13;18.30;97.50
10903;DHT22;5504;47.312;11.060;2023-09-19T06:55:39;18.70;96.10
10903;DHT22;5504;47.312;11.060;2023-09-19T06:58:05;19.00;95.40
10903;DHT22;5504;47.312;11.060;2023-09-19T07:00:31;19.30;95.10
10903;DHT22;5504;47.312;11.060;2023-09-19T07:03:04;19.50;94.70
10903;DHT22;5504;47.312;11.060;2023-09-19T07:05:34;19.60;93.70
10903;DHT22;5504;47.312;11.060;2023-09-19T07:08:03;19.70;93.60
10903;DHT22;5504;47.312;11.060;2023-09-19T07:10:30;19.70;93.10
10903;DHT22;5504;47.312;11.060;2023-09-19T07:13:00;19.60;93.20
10903;DHT22;5504;47.312;11.060;2023-09-19T07:15:27;19.90;93.70
10903;DHT22;5504;47.312;11.060;2023-09-19T07:17:53;19.90;92.80
10903;DHT22;5504;47.312;11.060;2023-09-19T07:20:20;19.90;92.70
10903;DHT22;5504;47.312;11.060;2023-09-19T07:22:46;19.40;92.20
10903;DHT22;5504;47.312;11.060;2023-09-19T07:25:13;19.50;93.40
10903;DHT22;5504;47.312;11.060;2023-09-19T07:27:41;19.80;94.00
10903;DHT22;5504;47.312;11.060;2023-09-19T07:30:07;19.60;92.50
10903;DHT22;5504;47.312;11.060;2023-09-19T07:32:33;19.80;92.60
10903;DHT22;5504;47.312;11.060;2023-09-19T07:35:02;19.80;92.50
10903;DHT22;5504;47.312;11.060;2023-09-19T07:37:29;19.70;91.80
10903;DHT22;5504;47.312;11.060;2023-09-19T07:39:56;19.80;91.70
10903;DHT22;5504;47.312;11.060;2023-09-19T07:42:22;19.70;92.90
10903;DHT22;5504;47.312;11.060;2023-09-19T07:44:48;19.70;92.80
10903;DHT22;5504;47.312;11.060;2023-09-19T07:47:16;19.90;93.50
10903;DHT22;5504;47.312;11.060;2023-09-19T07:49:42;20.10;92.80
10903;DHT22;5504;47.312;11.060;2023-09-19T07:52:08;20.60;93.40
10903;DHT22;5504;47.312;11.060;2023-09-19T07:54:35;21.10;92.80
10903;DHT22;5504;47.312;11.060;2023-09-19T07:57:02;21.40;92.00
10903;DHT22;5504;47.312;11.060;2023-09-19T07:59:27;21.40;91.10
10903;DHT22;5504;47.312;11.060;2023-09-19T08:01:53;21.70;91.80
10903;DHT22;5504;47.312;11.060;2023-09-19T08:04:19;22.30;91.70
10903;DHT22;5504;47.312;11.060;2023-09-19T08:06:45;22.60;88.80
10903;DHT22;5504;47.312;11.060;2023-09-19T08:09:11;22.50;90.00
10903;DHT22;5504;47.312;11.060;2023-09-19T08:11:39;22.60;89.60
10903;DHT22;5504;47.312;11.060;2023-09-19T08:14:05;22.20;86.90
10903;DHT22;5504;47.312;11.060;2023-09-19T08:16:33;22.00;88.90
10903;DHT22;5504;47.312;11.060;2023-09-19T08:18:59;21.60;89.90
10903;DHT22;5504;47.312;11.060;2023-09-19T08:21:25;20.10;89.40
10903;DHT22;5504;47.312;11.060;2023-09-19T08:23:53;19.80;91.30
10903;DHT22;5504;47.312;11.060;2023-09-19T08:26:19;20.00;91.80
10903;DHT22;5504;47.312;11.060;2023-09-19T08:28:45;19.90;91.70
10903;DHT22;5504;47.312;11.060;2023-09-19T08:31:11;20.00;91.50
10903;DHT22;5504;47.312;11.060;2023-09-19T08:33:37;20.20;93.10
10903;DHT22;5504;47.312;11.060;2023-09-19T08:36:03;20.90;92.70
10903;DHT22;5504;47.312;11.060;2023-09-19T08:38:35;21.40;91.80
10903;DHT22;5504;47.312;11.060;2023-09-19T08:41:05;22.40;92.40
10903;DHT22;5504;47.312;11.060;2023-09-19T08:43:31;22.40;90.20
10903;DHT22;5504;47.312;11.060;2023-09-19T08:48:32;22.80;87.10
10903;DHT22;5504;47.312;11.060;2023-09-19T08:51:12;22.40;85.00
10903;DHT22;5504;47.312;11.060;2023-09-19T08:53:47;22.40;84.60
10903;DHT22;5504;47.312;11.060;2023-09-19T08:56:17;21.90;85.00
10903;DHT22;5504;47.312;11.060;2023-09-19T08:58:51;21.70;86.40
10903;DHT22;5504;47.312;11.060;2023-09-19T09:01:21;21.90;89.50
10903;DHT22;5504;47.312;11.060;2023-09-19T09:03:54;22.30;85.00
10903;DHT22;5504;47.312;11.060;2023-09-19T09:06:23;22.00;84.50
10903;DHT22;5504;47.312;11.060;2023-09-19T09:08:53;22.10;83.30
10903;DHT22;5504;47.312;11.060;2023-09-19T09:11:19;21.80;83.20
10903;DHT22;5504;47.312;11.060;2023-09-19T09:13:46;21.50;85.70
10903;DHT22;5504;47.312;11.060;2023-09-19T09:16:12;21.50;87.80
10903;DHT22;5504;47.312;11.060;2023-09-19T09:18:39;21.90;90.10
10903;DHT22;5504;47.312;11.060;2023-09-19T09:21:05;22.30;88.90
10903;DHT22;5504;47.312;11.060;2023-09-19T09:23:31;22.60;87.00
10903;DHT22;5504;47.312;11.060;2023-09-19T09:25:58;23.00;86.50
10903;DHT22;5504;47.312;11.060;2023-09-19T09:28:29;23.10;82.40
10903;DHT22;5504;47.312;11.060;2023-09-19T09:30:59;22.90;82.20
10903;DHT22;5504;47.312;11.060;2023-09-19T09:33:25;22.30;80.30
10903;DHT22;5504;47.312;11.060;2023-09-19T09:35:53;22.00;83.20
10903;DHT22;5504;47.312;11.060;2023-09-19T09:38:23;21.70;84.50
10903;DHT22;5504;47.312;11.060;2023-09-19T09:40:54;21.70;85.70
10903;DHT22;5504;47.312;11.060;2023-09-19T09:43:30;21.90;87.00
10903;DHT22;5504;47.312;11.060;2023-09-19T09:49:01;21.80;82.20
10903;DHT22;5504;47.312;11.060;2023-09-19T09:52:05;21.70;86.10
10903;DHT22;5504;47.312;11.060;2023-09-19T09:55:02;22.20;84.90
10903;DHT22;5504;47.312;11.060;2023-09-19T09:57:32;22.60;85.50
10903;DHT22;5504;47.312;11.060;2023-09-19T09:59:59;22.60;86.20
10903;DHT22;5504;47.312;11.060;2023-09-19T10:02:42;23.10;82.10
10903;DHT22;5504;47.312;11.060;2023-09-19T10:05:17;23.40;84.70
10903;DHT22;5504;47.312;11.060;2023-09-19T10:07:51;23.80;82.60
10903;DHT22;5504;47.312;11.060;2023-09-19T10:10:39;24.10;82.60
10903;DHT22;5504;47.312;11.060;2023-09-19T10:13:10;24.20;81.40
10903;DHT22;5504;47.312;11.060;2023-09-19T10:15:50;24.90;85.70
10903;DHT22;5504;47.312;11.060;2023-09-19T10:18:21;25.60;81.70
10903;DHT22;5504;47.312;11.060;2023-09-19T10:20:48;26.00;77.30
10903;DHT22;5504;47.312;11.060;2023-09-19T10:23:15;26.40;77.10
10903;DHT22;5504;47.312;11.060;2023-09-19T10:25:48;25.80;75.20
10903;DHT22;5504;47.312;11.060;2023-09-19T10:28:15;26.60;76.40
10903;DHT22;5504;47.312;11.060;2023-09-19T10:30:46;27.00;75.20
10903;DHT22;5504;47.312;11.060;2023-09-19T10:33:18;27.00;73.60
10903;DHT22;5504;47.312;11.060;2023-09-19T10:35:50;27.30;71.40
10903;DHT22;5504;47.312;11.060;2023-09-19T10:38:24;27.30;75.40
10903;DHT22;5504;47.312;11.060;2023-09-19T10:40:52;27.60;73.60
10903;DHT22;5504;47.312;11.060;2023-09-19T10:43:20;27.70;69.40
10903;DHT22;5504;47.312;11.060;2023-09-19T10:45:48;27.50;74.80
10903;DHT22;5504;47.312;11.060;2023-09-19T10:48:19;27.80;72.90
10903;DHT22;5504;47.312;11.060;2023-09-19T10:51:15;28.00;70.50
10903;DHT22;5504;47.312;11.060;2023-09-19T10:53:55;28.30;74.80
10903;DHT22;5504;47.312;11.060;2023-09-19T10:56:34;28.30;67.80
10903;DHT22;5504;47.312;11.060;2023-09-19T10:59:09;27.80;68.70
10903;DHT22;5504;47.312;11.060;2023-09-19T11:01:50;26.50;64.50
10903;DHT22;5504;47.312;11.060;2023-09-19T11:04:31;26.40;74.10
10903;DHT22;5504;47.312;11.060;2023-09-19T11:07:10;26.10;67.50
10903;DHT22;5504;47.312;11.060;2023-09-19T11:09:53;25.60;66.90
10903;DHT22;5504;47.312;11.060;2023-09-19T11:14:58;26.70;72.80
10903;DHT22;5504;47.312;11.060;2023-09-19T11:17:30;27.10;74.80
10903;DHT22;5504;47.312;11.060;2023-09-19T11:30:38;25.80;69.10
10903;DHT22;5504;47.312;11.060;2023-09-19T11:33:23;25.30;71.40
10903;DHT22;5504;47.312;11.060;2023-09-19T11:36:06;25.30;72.70
10903;DHT22;5504;47.312;11.060;2023-09-19T11:49:29;27.00;73.90
10903;DHT22;5504;47.312;11.060;2023-09-19T11:51:58;26.90;71.80
10903;DHT22;5504;47.312;11.060;2023-09-19T11:54:31;27.30;75.40
10903;DHT22;5504;47.312;11.060;2023-09-19T11:56:58;26.40;70.20
10903;DHT22;5504;47.312;11.060;2023-09-19T11:59:28;26.90;71.90
10903;DHT22;5504;47.312;11.060;2023-09-19T12:01:55;27.50;73.80
10903;DHT22;5504;47.312;11.060;2023-09-19T12:06:59;27.20;64.50
10903;DHT22;5504;47.312;11.060;2023-09-19T12:09:25;27.30;66.50
10903;DHT22;5504;47.312;11.060;2023-09-19T12:11:51;27.00;65.80
10903;DHT22;5504;47.312;11.060;2023-09-19T12:14:24;26.60;62.70
10903;DHT22;5504;47.312;11.060;2023-09-19T12:16:53;26.30;66.60
10903;DHT22;5504;47.312;11.060;2023-09-19T12:19:21;26.40;70.70
10903;DHT22;5504;47.312;11.060;2023-09-19T12:21:59;26.90;70.80
10903;DHT22;5504;47.312;11.060;2023-09-19T12:24:29;26.30;62.40
10903;DHT22;5504;47.312;11.060;2023-09-19T12:27:01;25.60;65.80
10903;DHT22;5504;47.312;11.060;2023-09-19T12:29:30;25.80;69.10
10903;DHT22;5504;47.312;11.060;2023-09-19T12:31:59;25.50;71.30
10903;DHT22;5504;47.312;11.060;2023-09-19T12:34:30;25.70;67.90
10903;DHT22;5504;47.312;11.060;2023-09-19T12:37:09;26.00;73.30
10903;DHT22;5504;47.312;11.060;2023-09-19T12:39:45;26.10;69.70
10903;DHT22;5504;47.312;11.060;2023-09-19T12:42:23;26.20;69.10
10903;DHT22;5504;47.312;11.060;2023-09-19T12:44:50;26.40;71.10
10903;DHT22;5504;47.312;11.060;2023-09-19T12:47:23;26.50;70.30
10903;DHT22;5504;47.312;11.060;2023-09-19T12:50:12;26.40;66.10
10903;DHT22;5504;47.312;11.060;2023-09-19T12:52:50;26.20;67.30
10903;DHT22;5504;47.312;11.060;2023-09-19T12:55:26;26.30;67.40
10903;DHT22;5504;47.312;11.060;2023-09-19T13:00:37;26.30;65.60
10903;DHT22;5504;47.312;11.060;2023-09-19T13:03:18;26.00;66.80
10903;DHT22;5504;47.312;11.060;2023-09-19T13:06:02;25.80;64.50
10903;DHT22;5504;47.312;11.060;2023-09-19T13:08:31;25.40;66.30
10903;DHT22;5504;47.312;11.060;2023-09-19T13:11:16;25.60;70.70
10903;DHT22;5504;47.312;11.060;2023-09-19T13:13:51;25.60;70.60
10903;DHT22;5504;47.312;11.060;2023-09-19T13:16:21;25.90;69.80
10903;DHT22;5504;47.312;11.060;2023-09-19T13:18:52;26.00;71.70
10903;DHT22;5504;47.312;11.060;2023-09-19T13:21:34;26.30;67.70
10903;DHT22;5504;47.312;11.060;2023-09-19T13:24:37;26.40;64.20
10903;DHT22;5504;47.312;11.060;2023-09-19T13:27:05;26.40;65.10
10903;DHT22;5504;47.312;11.060;2023-09-19T13:29:32;26.40;66.70
10903;DHT22;5504;47.312;11.060;2023-09-19T13:31:58;26.50;66.10
10903;DHT22;5504;47.312;11.060;2023-09-19T13:34:23;26.70;68.20
10903;DHT22;5504;47.312;11.060;2023-09-19T13:36:50;26.80;67.90
10903;DHT22;5504;47.312;11.060;2023-09-19T13:39:16;27.00;66.70
10903;DHT22;5504;47.312;11.060;2023-09-19T13:41:45;27.20;70.00
10903;DHT22;5504;47.312;11.060;2023-09-19T13:44:12;27.20;65.20
10903;DHT22;5504;47.312;11.060;2023-09-19T13:46:38;27.20;63.90
10903;DHT22;5504;47.312;11.060;2023-09-19T13:49:03;27.20;62.80
10903;DHT22;5504;47.312;11.060;2023-09-19T13:51:30;26.80;65.60
10903;DHT22;5504;47.312;11.060;2023-09-19T13:53:56;26.90;67.10
10903;DHT22;5504;47.312;11.060;2023-09-19T13:56:22;26.70;59.10
10903;DHT22;5504;47.312;11.060;2023-09-19T13:58:48;25.90;59.60
10903;DHT22;5504;47.312;11.060;2023-09-19T14:01:13;26.00;60.40
10903;DHT22;5504;47.312;11.060;2023-09-19T14:03:40;25.90;61.50
10903;DHT22;5504;47.312;11.060;2023-09-19T14:06:12;26.00;64.70
10903;DHT22;5504;47.312;11.060;2023-09-19T14:08:38;26.00;65.70
10903;DHT22;5504;47.312;11.060;2023-09-19T14:11:08;26.10;65.60
10903;DHT22;5504;47.312;11.060;2023-09-19T14:13:34;26.10;64.00
10903;DHT22;5504;47.312;11.060;2023-09-19T14:16:06;26.30;67.60
10903;DHT22;5504;47.312;11.060;2023-09-19T14:18:34;26.50;69.10
10903;DHT22;5504;47.312;11.060;2023-09-19T14:21:06;26.70;67.80
10903;DHT22;5504;47.312;11.060;2023-09-19T14:23:40;26.60;67.40
10903;DHT22;5504;47.312;11.060;2023-09-19T14:26:07;26.40;70.90
10903;DHT22;5504;47.312;11.060;2023-09-19T14:28:34;26.30;61.70
10903;DHT22;5504;47.312;11.060;2023-09-19T14:31:07;26.30;64.40
10903;DHT22;5504;47.312;11.060;2023-09-19T14:33:33;26.40;65.20
10903;DHT22;5504;47.312;11.060;2023-09-19T14:36:02;26.10;60.80
10903;DHT22;5504;47.312;11.060;2023-09-19T14:38:29;26.30;63.30
10903;DHT22;5504;47.312;11.060;2023-09-19T14:41:05;26.30;63.90
10903;DHT22;5504;47.312;11.060;2023-09-19T14:43:32;26.40;68.50
10903;DHT22;5504;47.312;11.060;2023-09-19T14:46:05;26.40;67.60
10903;DHT22;5504;47.312;11.060;2023-09-19T14:48:33;26.40;65.60
10903;DHT22;5504;47.312;11.060;2023-09-19T14:51:03;26.30;63.30
10903;DHT22;5504;47.312;11.060;2023-09-19T14:53:30;26.40;63.00
10903;DHT22;5504;47.312;11.060;2023-09-19T14:55:55;26.40;65.20
10903;DHT22;5504;47.312;11.060;2023-09-19T14:58:21;26.00;60.00
10903;DHT22;5504;47.312;11.060;2023-09-19T15:00:47;25.60;59.70
10903;DHT22;5504;47.312;11.060;2023-09-19T15:03:13;25.50;62.00
10903;DHT22;5504;47.312;11.060;2023-09-19T15:05:43;25.10;60.00
10903;DHT22;5504;47.312;11.060;2023-09-19T15:08:09;25.00;61.40
10903;DHT22;5504;47.312;11.060;2023-09-19T15:10:34;25.20;60.80
10903;DHT22;5504;47.312;11.060;2023-09-19T15:13:00;25.30;63.00
10903;DHT22;5504;47.312;11.060;2023-09-19T15:15:26;25.30;64.30
10903;DHT22;5504;47.312;11.060;2023-09-19T15:17:51;24.90;61.50
10903;DHT22;5504;47.312;11.060;2023-09-19T15:20:17;25.10;65.70
10903;DHT22;5504;47.312;11.060;2023-09-19T15:22:43;24.70;61.00
10903;DHT22;5504;47.312;11.060;2023-09-19T15:25:09;24.90;63.10
10903;DHT22;5504;47.312;11.060;2023-09-19T15:27:35;25.10;64.90
10903;DHT22;5504;47.312;11.060;2023-09-19T15:30:02;24.50;62.30
10903;DHT22;5504;47.312;11.060;2023-09-19T15:32:30;24.50;62.30
10903;DHT22;5504;47.312;11.060;2023-09-19T15:34:56;24.70;67.30
10903;DHT22;5504;47.312;11.060;2023-09-19T15:37:22;24.90;67.10
10903;DHT22;5504;47.312;11.060;2023-09-19T15:39:48;25.10;68.20
10903;DHT22;5504;47.312;11.060;2023-09-19T15:42:14;25.10;68.90
10903;DHT22;5504;47.312;11.060;2023-09-19T15:44:42;25.10;68.20
10903;DHT22;5504;47.312;11.060;2023-09-19T15:47:09;25.10;70.20
10903;DHT22;5504;47.312;11.060;2023-09-19T15:49:35;25.10;68.40
10903;DHT22;5504;47.312;11.060;2023-09-19T15:52:01;25.00;67.60
10903;DHT22;5504;47.312;11.060;2023-09-19T15:54:26;24.90;67.80
10903;DHT22;5504;47.312;11.060;2023-09-19T15:56:53;24.80;66.70
10903;DHT22;5504;47.312;11.060;2023-09-19T15:59:20;24.80;66.70
10903;DHT22;5504;47.312;11.060;2023-09-19T16:01:46;24.70;66.60
10903;DHT22;5504;47.312;11.060;2023-09-19T16:04:12;24.50;66.80
10903;DHT22;5504;47.312;11.060;2023-09-19T16:06:38;24.30;66.50
10903;DHT22;5504;47.312;11.060;2023-09-19T16:09:04;24.20;67.00
10903;DHT22;5504;47.312;11.060;2023-09-19T16:11:34;24.00;66.60
10903;DHT22;5504;47.312;11.060;2023-09-19T16:14:03;23.90;68.60
10903;DHT22;5504;47.312;11.060;2023-09-19T16:16:30;23.70;69.50
10903;DHT22;5504;47.312;11.060;2023-09-19T16:19:01;23.60;69.30
10903;DHT22;5504;47.312;11.060;2023-09-19T16:21:28;23.50;69.90
10903;DHT22;5504;47.312;11.060;2023-09-19T16:23:58;23.40;71.20
10903;DHT22;5504;47.312;11.060;2023-09-19T16:26:25;23.40;70.50
10903;DHT22;5504;47.312;11.060;2023-09-19T16:28:53;23.30;70.90
10903;DHT22;5504;47.312;11.060;2023-09-19T16:31:19;23.20;73.00